Oski — WYD3004 — position and weather

sailwx.info

Track history (hours):
 
Tides and Currents Weather Stations Pressure Air Temp Water Temp Dewpoint Dewpoint Depression Visibility Wind Speed Wind Dir Waves Ship Positions

Oski

Owner: BLUE & GOLD FLEET, SAN FRANCISCO, CA. More information available from US FCC via Universal Licensing System and Coast Guard Vessel Documentation Center.

Last reported at 2016-Oct-31 13:32 UTC. Time now 2016-Dec-07 16:28 UTC.
Position N 37°47' W 122°18'.
Warning: this ship's position is 37 days out of date.

Length 24 m; draft 2 m.

Type: Passenger vessel. MMSI: 366985320.

Date/timePositionNaut miles runAvg speedWind from/ knotsBaromVisibWave heightAir tempDewpointWater temp
2016-Oct-31 13:32N 37°47' W 122°18'0 0.0
2016-Oct-31 12:33N 37°47' W 122°18'0 0.0
2016-Oct-31 10:31N 37°47' W 122°18'0 0.0
2016-Oct-31 09:33N 37°47' W 122°18'0 0.0
2016-Oct-31 08:33N 37°47' W 122°18'0 0.0
2016-Oct-31 07:30N 37°47' W 122°18'0 0.0
2016-Oct-31 03:32N 37°47' W 122°18'0 0.0
2016-Oct-30 20:33N 37°47' W 122°18'0 0.0
2016-Oct-30 13:31N 37°47' W 122°18'0 0.0
2016-Oct-30 12:30N 37°47' W 122°18'0 0.0
2016-Oct-30 11:33N 37°47' W 122°18'0 0.0
2016-Oct-30 08:31N 37°47' W 122°18'0 0.0
2016-Oct-30 07:33N 37°47' W 122°18'0 0.0
2016-Oct-30 02:30N 37°47' W 122°18'0 0.0
2016-Oct-30 00:30N 37°47' W 122°18'0 0.0
2016-Oct-29 23:30N 37°47' W 122°18'0 0.0
2016-Oct-29 22:31N 37°47' W 122°18'0 0.0
2016-Oct-29 21:32N 37°47' W 122°18'0 0.0
2016-Oct-29 20:32N 37°47' W 122°18'0 0.0
2016-Oct-29 19:33N 37°47' W 122°18'0 0.0
2016-Oct-29 18:29N 37°47' W 122°18'0 0.0
2016-Oct-29 16:31N 37°47' W 122°18'0 0.0
2016-Oct-29 14:26N 37°47' W 122°18'0 0.0
2016-Oct-29 11:33N 37°47' W 122°18'0 0.0
2016-Oct-29 09:33N 37°47' W 122°18'0 0.0
2016-Oct-29 06:33N 37°47' W 122°18'0 0.0
2016-Oct-29 04:29N 37°47' W 122°18'0 0.0
2016-Oct-29 02:32N 37°47' W 122°18'0 0.0
2016-Oct-28 23:32N 37°47' W 122°18'0 0.0
2016-Oct-28 21:31N 37°47' W 122°18'0 0.0
2016-Oct-28 19:30N 37°47' W 122°18'0 0.0
2016-Oct-28 16:29N 37°47' W 122°18'0 0.0
2016-Oct-28 15:28N 37°47' W 122°18'0 0.0
2016-Oct-28 14:31N 37°47' W 122°18'0 0.0
2016-Oct-28 09:33N 37°47' W 122°18'0 0.0
2016-Oct-28 08:28N 37°47' W 122°18'0 0.0
2016-Oct-28 07:31N 37°47' W 122°18'0 0.0
2016-Oct-28 00:32N 37°47' W 122°18'0 0.0
2016-Oct-27 23:31N 37°47' W 122°18'0 0.0
2016-Oct-27 21:31N 37°47' W 122°18'0 0.0
2016-Oct-27 17:33N 37°47' W 122°18'0 0.0
2016-Oct-27 15:30N 37°47' W 122°18'0 0.0
2016-Oct-27 11:33N 37°47' W 122°18'0 0.0
2016-Oct-27 09:31N 37°47' W 122°18'0 0.0
2016-Oct-27 05:33N 37°47' W 122°18'0 0.0
2016-Oct-27 04:28N 37°47' W 122°18'0 0.0
2016-Oct-27 03:30N 37°47' W 122°18'0 0.0
2016-Oct-27 00:26N 37°47' W 122°18'0 0.0
2016-Oct-26 21:31N 37°47' W 122°18'0 0.0
2016-Oct-26 16:29N 37°47' W 122°18'0 0.0
2016-Oct-26 15:31N 37°47' W 122°18'0 0.0
2016-Oct-26 14:27N 37°47' W 122°18'0 0.0
2016-Oct-25 23:33N 37°47' W 122°18'0 0.0
2016-Oct-25 21:31N 37°47' W 122°18'0 0.0
2016-Oct-25 20:32N 37°47' W 122°18'6 1.9
2016-Oct-25 17:30N 37°49' W 122°25'0 0.0
2016-Oct-25 16:33N 37°49' W 122°25'0 0.0
2016-Oct-25 15:32N 37°49' W 122°25'0 0.0
2016-Oct-25 13:33N 37°49' W 122°25'0 0.0
2016-Oct-25 12:31N 37°49' W 122°25'0 0.0
2016-Oct-25 10:32N 37°49' W 122°25'0 0.0
2016-Oct-25 07:32N 37°49' W 122°25'0 0.0
2016-Oct-25 04:32N 37°49' W 122°25'0 0.0
2016-Oct-25 03:32N 37°49' W 122°25'0 0.0
2016-Oct-25 02:30N 37°49' W 122°25'0 0.0
2016-Oct-24 21:32N 37°49' W 122°25'3 3.0
2016-Oct-24 20:33N 37°49' W 122°28'3 1.4
2016-Oct-24 18:33N 37°49' W 122°25'0 0.0
2016-Oct-24 13:32N 37°49' W 122°25'0 0.0
2016-Oct-24 07:33N 37°49' W 122°25'0 0.0
2016-Oct-24 06:33N 37°49' W 122°25'4 4.3
2016-Oct-24 05:33N 37°52' W 122°27'4 4.2
2016-Oct-24 04:33N 37°49' W 122°25'0 0.0
2016-Oct-24 01:33N 37°49' W 122°25'0 0.0
2016-Oct-23 22:30N 37°49' W 122°25'0 0.0
2016-Oct-23 16:28N 37°49' W 122°25'0 0.0
2016-Oct-23 14:30N 37°49' W 122°25'0 0.0
2016-Oct-23 13:32N 37°49' W 122°25'0 0.0
2016-Oct-23 10:32N 37°49' W 122°25'0 0.0
2016-Oct-23 09:33N 37°49' W 122°25'0 0.0
2016-Oct-23 07:26N 37°49' W 122°25'4 2.3
2016-Oct-23 05:33N 37°52' W 122°27'4 2.2
2016-Oct-23 03:33N 37°49' W 122°25'4 4.3
2016-Oct-23 02:33N 37°52' W 122°27'4 1.4
2016-Oct-22 23:27N 37°49' W 122°25'0 0.0
2016-Oct-22 17:33N 37°49' W 122°25'0 0.0
2016-Oct-22 16:31N 37°49' W 122°25'0 0.0
2016-Oct-22 15:32N 37°49' W 122°25'0 0.0
2016-Oct-22 13:26N 37°49' W 122°25'0 0.0
2016-Oct-22 10:31N 37°49' W 122°25'0 0.0
2016-Oct-22 08:31N 37°49' W 122°25'0 0.0
2016-Oct-22 07:31N 37°49' W 122°25'0 0.0
2016-Oct-22 04:31N 37°49' W 122°25'0 0.0
2016-Oct-22 00:33N 37°49' W 122°25'0 0.1
2016-Oct-21 23:33N 37°49' W 122°25'0 0.0
2016-Oct-21 21:33N 37°49' W 122°25'  
Track history (hours):
 
Tides and Currents Weather Stations Pressure Air Temp Water Temp Dewpoint Dewpoint Depression Visibility Wind Speed Wind Dir Waves Ship Positions

Oski

Owner: BLUE & GOLD FLEET, SAN FRANCISCO, CA. More information available from US FCC via Universal Licensing System and Coast Guard Vessel Documentation Center.

Last reported at 2016-Oct-31 13:32 UTC. Time now 2016-Dec-07 16:28 UTC.
Position N 37°47' W 122°18'.
Warning: this ship's position is 37 days out of date.

Length 24 m; draft 2 m.

Type: Passenger vessel. MMSI: 366985320.

Date/timePositionNaut miles runAvg speedWind from/ knotsBaromVisibWave heightAir tempDewpointWater temp
2016-Oct-31 13:32N 37°47' W 122°18'0 0.0
2016-Oct-31 12:33N 37°47' W 122°18'0 0.0
2016-Oct-31 10:31N 37°47' W 122°18'0 0.0
2016-Oct-31 09:33N 37°47' W 122°18'0 0.0
2016-Oct-31 08:33N 37°47' W 122°18'0 0.0
2016-Oct-31 07:30N 37°47' W 122°18'0 0.0
2016-Oct-31 03:32N 37°47' W 122°18'0 0.0
2016-Oct-30 20:33N 37°47' W 122°18'0 0.0
2016-Oct-30 13:31N 37°47' W 122°18'0 0.0
2016-Oct-30 12:30N 37°47' W 122°18'0 0.0
2016-Oct-30 11:33N 37°47' W 122°18'0 0.0
2016-Oct-30 08:31N 37°47' W 122°18'0 0.0
2016-Oct-30 07:33N 37°47' W 122°18'0 0.0
2016-Oct-30 02:30N 37°47' W 122°18'0 0.0
2016-Oct-30 00:30N 37°47' W 122°18'0 0.0
2016-Oct-29 23:30N 37°47' W 122°18'0 0.0
2016-Oct-29 22:31N 37°47' W 122°18'0 0.0
2016-Oct-29 21:32N 37°47' W 122°18'0 0.0
2016-Oct-29 20:32N 37°47' W 122°18'0 0.0
2016-Oct-29 19:33N 37°47' W 122°18'0 0.0
2016-Oct-29 18:29N 37°47' W 122°18'0 0.0
2016-Oct-29 16:31N 37°47' W 122°18'0 0.0
2016-Oct-29 14:26N 37°47' W 122°18'0 0.0
2016-Oct-29 11:33N 37°47' W 122°18'0 0.0
2016-Oct-29 09:33N 37°47' W 122°18'0 0.0
2016-Oct-29 06:33N 37°47' W 122°18'0 0.0
2016-Oct-29 04:29N 37°47' W 122°18'0 0.0
2016-Oct-29 02:32N 37°47' W 122°18'0 0.0
2016-Oct-28 23:32N 37°47' W 122°18'0 0.0
2016-Oct-28 21:31N 37°47' W 122°18'0 0.0
2016-Oct-28 19:30N 37°47' W 122°18'0 0.0
2016-Oct-28 16:29N 37°47' W 122°18'0 0.0
2016-Oct-28 15:28N 37°47' W 122°18'0 0.0
2016-Oct-28 14:31N 37°47' W 122°18'0 0.0
2016-Oct-28 09:33N 37°47' W 122°18'0 0.0
2016-Oct-28 08:28N 37°47' W 122°18'0 0.0
2016-Oct-28 07:31N 37°47' W 122°18'0 0.0
2016-Oct-28 00:32N 37°47' W 122°18'0 0.0
2016-Oct-27 23:31N 37°47' W 122°18'0 0.0
2016-Oct-27 21:31N 37°47' W 122°18'0 0.0
2016-Oct-27 17:33N 37°47' W 122°18'0 0.0
2016-Oct-27 15:30N 37°47' W 122°18'0 0.0
2016-Oct-27 11:33N 37°47' W 122°18'0 0.0
2016-Oct-27 09:31N 37°47' W 122°18'0 0.0
2016-Oct-27 05:33N 37°47' W 122°18'0 0.0
2016-Oct-27 04:28N 37°47' W 122°18'0 0.0
2016-Oct-27 03:30N 37°47' W 122°18'0 0.0
2016-Oct-27 00:26N 37°47' W 122°18'0 0.0
2016-Oct-26 21:31N 37°47' W 122°18'0 0.0
2016-Oct-26 16:29N 37°47' W 122°18'0 0.0
2016-Oct-26 15:31N 37°47' W 122°18'0 0.0
2016-Oct-26 14:27N 37°47' W 122°18'0 0.0
2016-Oct-25 23:33N 37°47' W 122°18'0 0.0
2016-Oct-25 21:31N 37°47' W 122°18'0 0.0
2016-Oct-25 20:32N 37°47' W 122°18'6 1.9
2016-Oct-25 17:30N 37°49' W 122°25'0 0.0
2016-Oct-25 16:33N 37°49' W 122°25'0 0.0
2016-Oct-25 15:32N 37°49' W 122°25'0 0.0
2016-Oct-25 13:33N 37°49' W 122°25'0 0.0
2016-Oct-25 12:31N 37°49' W 122°25'0 0.0
2016-Oct-25 10:32N 37°49' W 122°25'0 0.0
2016-Oct-25 07:32N 37°49' W 122°25'0 0.0
2016-Oct-25 04:32N 37°49' W 122°25'0 0.0
2016-Oct-25 03:32N 37°49' W 122°25'0 0.0
2016-Oct-25 02:30N 37°49' W 122°25'0 0.0
2016-Oct-24 21:32N 37°49' W 122°25'3 3.0
2016-Oct-24 20:33N 37°49' W 122°28'3 1.4
2016-Oct-24 18:33N 37°49' W 122°25'0 0.0
2016-Oct-24 13:32N 37°49' W 122°25'0 0.0
2016-Oct-24 07:33N 37°49' W 122°25'0 0.0
2016-Oct-24 06:33N 37°49' W 122°25'4 4.3
2016-Oct-24 05:33N 37°52' W 122°27'4 4.2
2016-Oct-24 04:33N 37°49' W 122°25'0 0.0
2016-Oct-24 01:33N 37°49' W 122°25'0 0.0
2016-Oct-23 22:30N 37°49' W 122°25'0 0.0
2016-Oct-23 16:28N 37°49' W 122°25'0 0.0
2016-Oct-23 14:30N 37°49' W 122°25'0 0.0
2016-Oct-23 13:32N 37°49' W 122°25'0 0.0
2016-Oct-23 10:32N 37°49' W 122°25'0 0.0
2016-Oct-23 09:33N 37°49' W 122°25'0 0.0
2016-Oct-23 07:26N 37°49' W 122°25'4 2.3
2016-Oct-23 05:33N 37°52' W 122°27'4 2.2
2016-Oct-23 03:33N 37°49' W 122°25'4 4.3
2016-Oct-23 02:33N 37°52' W 122°27'4 1.4
2016-Oct-22 23:27N 37°49' W 122°25'0 0.0
2016-Oct-22 17:33N 37°49' W 122°25'0 0.0
2016-Oct-22 16:31N 37°49' W 122°25'0 0.0
2016-Oct-22 15:32N 37°49' W 122°25'0 0.0
2016-Oct-22 13:26N 37°49' W 122°25'0 0.0
2016-Oct-22 10:31N 37°49' W 122°25'0 0.0
2016-Oct-22 08:31N 37°49' W 122°25'0 0.0
2016-Oct-22 07:31N 37°49' W 122°25'0 0.0
2016-Oct-22 04:31N 37°49' W 122°25'0 0.0
2016-Oct-22 00:33N 37°49' W 122°25'0 0.1
2016-Oct-21 23:33N 37°49' W 122°25'0 0.0
2016-Oct-21 21:33N 37°49' W 122°25'  

Dump ship's entire track history